createdAt,value
2019-02-09T00:03:37.221Z,8.11
2019-02-09T00:08:42.596Z,7.99
2019-02-09T00:13:52.495Z,8.03
2019-02-09T00:19:03.724Z,8.07
2019-02-09T00:24:09.040Z,8.08
2019-02-09T00:29:16.218Z,8.13
2019-02-09T00:34:25.324Z,8.20
2019-02-09T00:39:31.948Z,8.23
2019-02-09T00:44:40.340Z,8.32
2019-02-09T00:49:48.309Z,8.36
2019-02-09T00:54:56.108Z,8.35
2019-02-09T01:00:02.577Z,8.40
2019-02-09T01:05:10.906Z,8.39
2019-02-09T01:10:19.972Z,8.34
2019-02-09T01:15:27.343Z,8.36
2019-02-09T01:20:36.617Z,8.40
2019-02-09T01:25:49.060Z,8.41
2019-02-09T01:30:57.953Z,8.40
2019-02-09T01:36:05.485Z,8.42
2019-02-09T01:41:13.689Z,8.37
2019-02-09T01:46:21.580Z,8.34
2019-02-09T01:51:30.070Z,8.30
2019-02-09T01:56:36.840Z,8.28
2019-02-09T02:01:44.104Z,8.25
2019-02-09T02:06:53.044Z,8.23
2019-02-09T02:12:01.729Z,8.27
2019-02-09T02:17:08.925Z,8.15
2019-02-09T02:22:19.422Z,8.27
2019-02-09T02:27:26.592Z,8.17
2019-02-09T02:32:34.527Z,8.08
2019-02-09T02:37:46.016Z,7.87
2019-02-09T02:42:52.993Z,7.61
2019-02-09T02:48:01.169Z,7.30
2019-02-09T02:53:09.082Z,6.97
2019-02-09T02:58:18.045Z,6.78
2019-02-09T03:03:25.929Z,6.71
2019-02-09T03:08:32.584Z,6.71
2019-02-09T03:13:41.602Z,6.75
2019-02-09T03:18:50.404Z,6.85
2019-02-09T03:24:00.959Z,6.94
2019-02-09T03:29:08.867Z,6.96
2019-02-09T03:34:17.889Z,6.98
2019-02-09T03:39:31.853Z,7.14
2019-02-09T03:44:40.561Z,7.18
2019-02-09T03:49:50.279Z,7.19
2019-02-09T03:55:00.813Z,7.19
2019-02-09T04:00:10.944Z,7.38
2019-02-09T04:05:19.715Z,7.39
2019-02-09T04:10:29.342Z,7.44
2019-02-09T04:15:38.310Z,7.55
2019-02-09T04:20:46.474Z,7.57
2019-02-09T04:25:55.235Z,7.60
2019-02-09T04:31:05.927Z,7.61
2019-02-09T04:36:11.022Z,7.63
2019-02-09T04:41:20.761Z,7.63
2019-02-09T04:46:31.967Z,7.60
2019-02-09T04:51:40.017Z,7.57
2019-02-09T04:56:48.712Z,7.54
2019-02-09T05:01:57.378Z,7.58
2019-02-09T05:07:06.536Z,7.72
2019-02-09T05:12:17.930Z,7.85
2019-02-09T05:17:26.033Z,7.84
2019-02-09T05:22:31.780Z,7.85
2019-02-09T05:27:42.081Z,7.95
2019-02-09T05:32:50.536Z,7.86
2019-02-09T05:37:57.062Z,7.84
2019-02-09T05:43:05.832Z,7.76
2019-02-09T05:48:17.156Z,7.77
2019-02-09T05:53:24.718Z,7.72
2019-02-09T05:58:55.583Z,7.63
2019-02-09T06:04:06.142Z,7.53
2019-02-09T06:09:14.388Z,7.52
2019-02-09T06:14:23.599Z,7.53
2019-02-09T06:19:31.582Z,7.51
2019-02-09T06:24:40.224Z,7.49
2019-02-09T06:29:52.416Z,7.50
2019-02-09T06:35:01.219Z,7.38
2019-02-09T06:40:09.131Z,7.35
2019-02-09T06:45:18.474Z,7.35
2019-02-09T06:50:30.797Z,7.50
2019-02-09T06:55:36.660Z,7.38
2019-02-09T07:00:46.370Z,7.31
2019-02-09T07:05:55.425Z,7.23
2019-02-09T07:11:02.641Z,7.18
2019-02-09T07:16:12.459Z,7.04
2019-02-09T07:21:18.880Z,7.13
2019-02-09T07:26:28.562Z,7.12
2019-02-09T07:31:37.071Z,7.14
2019-02-09T07:36:45.378Z,7.16
2019-02-09T07:41:55.572Z,7.17
2019-02-09T07:47:03.088Z,7.25
2019-02-09T07:52:10.258Z,7.20
2019-02-09T07:57:21.637Z,7.20
2019-02-09T08:02:28.008Z,7.32
2019-02-09T08:07:36.441Z,7.37
2019-02-09T08:12:44.904Z,7.61
2019-02-09T08:17:51.820Z,7.67
2019-02-09T08:23:00.853Z,7.74
2019-02-09T08:28:09.284Z,7.84
2019-02-09T08:33:18.944Z,7.86
2019-02-09T08:38:28.281Z,7.89
2019-02-09T08:43:38.274Z,8.02
2019-02-09T08:48:48.419Z,8.23
2019-02-09T08:53:57.538Z,8.29
2019-02-09T08:59:04.125Z,8.35
2019-02-09T09:04:13.768Z,8.34
2019-02-09T09:09:28.449Z,8.30
2019-02-09T09:14:35.979Z,8.28
2019-02-09T09:19:43.061Z,8.32
2019-02-09T09:24:52.325Z,8.44
2019-02-09T09:29:59.691Z,8.44
2019-02-09T09:35:07.392Z,8.50
2019-02-09T09:40:19.018Z,8.59
2019-02-09T09:45:29.477Z,8.66
2019-02-09T09:50:39.968Z,8.67
2019-02-09T09:55:48.772Z,8.73
2019-02-09T10:00:58.542Z,8.91
2019-02-09T10:06:05.637Z,8.97
2019-02-09T10:11:11.678Z,8.94
2019-02-09T10:16:18.087Z,9.11
2019-02-09T10:21:27.916Z,9.38
2019-02-09T10:26:35.267Z,9.33
2019-02-09T10:31:43.143Z,9.50
2019-02-09T10:36:52.682Z,9.63
2019-02-09T10:42:01.023Z,9.80
2019-02-09T10:47:06.362Z,10.36
2019-02-09T10:52:13.664Z,9.77
2019-02-09T10:57:20.949Z,9.65
2019-02-09T11:02:28.043Z,9.56
2019-02-09T11:07:35.399Z,9.34
2019-02-09T11:12:46.766Z,9.31
2019-02-09T11:17:56.455Z,9.48
2019-02-09T11:23:04.633Z,10.09
2019-02-09T11:28:14.241Z,10.41
2019-02-09T11:33:21.392Z,10.02
2019-02-09T11:38:29.299Z,11.45
2019-02-09T11:43:36.533Z,11.74
2019-02-09T11:48:44.340Z,12.13
2019-02-09T11:53:53.507Z,11.62
2019-02-09T11:59:02.224Z,11.66
2019-02-09T12:04:08.679Z,11.56
2019-02-09T12:09:17.640Z,11.07
2019-02-09T12:14:27.949Z,11.00
2019-02-09T12:19:35.736Z,11.63
2019-02-09T12:24:43.782Z,10.80
2019-02-09T12:29:51.554Z,11.10
2019-02-09T12:35:02.016Z,10.66
2019-02-09T12:40:13.570Z,10.82
2019-02-09T12:45:20.661Z,10.39
2019-02-09T12:50:30.009Z,10.60
2019-02-09T12:55:39.655Z,10.26
2019-02-09T13:00:48.363Z,10.25
2019-02-09T13:05:56.369Z,11.18
2019-02-09T13:11:07.889Z,12.01
2019-02-09T13:16:14.291Z,12.43
2019-02-09T13:21:23.847Z,11.95
2019-02-09T13:26:30.705Z,11.59
2019-02-09T13:31:39.906Z,11.79
2019-02-09T13:36:51.017Z,11.49
2019-02-09T13:41:58.118Z,11.47
2019-02-09T13:47:05.004Z,11.48
2019-02-09T13:52:13.811Z,11.31
2019-02-09T13:57:21.569Z,10.74
2019-02-09T14:02:29.867Z,11.06
2019-02-09T14:07:38.121Z,11.22
2019-02-09T14:12:44.522Z,11.33
2019-02-09T14:17:50.445Z,11.04
2019-02-09T14:23:02.808Z,10.96
2019-02-09T14:28:12.420Z,11.06
2019-02-09T14:33:22.290Z,11.04
2019-02-09T14:38:33.173Z,10.60
2019-02-09T14:43:40.533Z,10.55
2019-02-09T14:48:52.297Z,10.50
2019-02-09T14:53:58.828Z,10.34
2019-02-09T14:59:06.185Z,10.37
2019-02-09T15:04:14.946Z,10.24
2019-02-09T15:09:24.516Z,10.32
2019-02-09T15:14:32.295Z,10.23
2019-02-09T15:19:42.299Z,10.22
2019-02-09T15:24:51.932Z,10.11
2019-02-09T15:30:00.473Z,10.03
2019-02-09T15:35:12.203Z,9.99
2019-02-09T15:40:20.910Z,10.03
2019-02-09T15:45:27.881Z,9.94
2019-02-09T15:50:35.725Z,9.89
2019-02-09T15:55:43.146Z,9.87
2019-02-09T16:00:51.201Z,9.83
2019-02-09T16:05:57.157Z,9.79
2019-02-09T16:11:04.172Z,9.73
2019-02-09T16:16:11.980Z,9.64
2019-02-09T16:21:20.009Z,9.65
2019-02-09T16:26:31.230Z,9.62
2019-02-09T16:31:40.078Z,9.60
2019-02-09T16:36:50.446Z,9.56
2019-02-09T16:41:58.641Z,9.52
2019-02-09T16:47:05.228Z,9.46
2019-02-09T16:52:15.331Z,9.35
2019-02-09T16:57:23.725Z,9.31
2019-02-09T17:02:31.510Z,9.21
2019-02-09T17:07:37.715Z,9.19
2019-02-09T17:12:45.958Z,9.18
2019-02-09T17:17:57.638Z,9.10
2019-02-09T17:23:05.890Z,9.02
2019-02-09T17:28:15.691Z,8.93
2019-02-09T17:33:23.007Z,9.02
2019-02-09T17:38:33.308Z,9.08
2019-02-09T17:43:36.181Z,9.01
2019-02-09T17:48:44.236Z,8.98
2019-02-09T17:53:50.948Z,8.90
2019-02-09T17:58:56.580Z,8.86
2019-02-09T18:04:02.608Z,8.81
2019-02-09T18:09:10.823Z,8.81
2019-02-09T18:14:27.713Z,8.83
2019-02-09T18:19:38.177Z,8.82
2019-02-09T18:24:45.006Z,8.81
2019-02-09T18:29:51.653Z,8.86
2019-02-09T18:35:02.329Z,8.88
2019-02-09T18:40:15.506Z,8.93
2019-02-09T18:45:26.595Z,8.97
2019-02-09T18:50:34.443Z,8.99
2019-02-09T18:55:44.106Z,9.02
2019-02-09T19:00:50.312Z,9.03
2019-02-09T19:05:57.261Z,8.99
2019-02-09T19:11:07.066Z,8.94
2019-02-09T19:16:13.561Z,8.90
2019-02-09T19:21:21.222Z,8.84
2019-02-09T19:26:27.691Z,8.77
2019-02-09T19:31:37.372Z,8.80
2019-02-09T19:36:44.004Z,8.76
2019-02-09T19:41:53.447Z,8.76
2019-02-09T19:47:02.744Z,8.74
2019-02-09T19:52:11.499Z,8.86
2019-02-09T19:57:22.978Z,8.88
2019-02-09T20:02:33.504Z,8.83
2019-02-09T20:07:42.931Z,8.73
2019-02-09T20:15:31.335Z,8.68
2019-02-09T20:20:37.967Z,8.75
2019-02-09T20:25:46.484Z,8.68
2019-02-09T20:30:58.893Z,8.67
2019-02-09T20:36:27.533Z,8.63
2019-02-09T20:41:35.004Z,8.64
2019-02-09T20:46:40.743Z,8.64
2019-02-09T20:51:53.288Z,8.62
2019-02-09T20:57:01.006Z,8.59
2019-02-09T21:02:11.264Z,8.55
2019-02-09T21:07:24.305Z,8.57
2019-02-09T21:12:26.494Z,8.52
2019-02-09T21:17:33.685Z,8.51
2019-02-09T21:22:42.898Z,8.51
2019-02-09T21:27:55.238Z,8.45
2019-02-09T21:33:04.971Z,8.37
2019-02-09T21:38:12.314Z,8.33
2019-02-09T21:43:19.458Z,8.32
2019-02-09T21:48:26.440Z,8.32
2019-02-09T21:53:36.282Z,8.23
2019-02-09T21:58:45.006Z,8.19
2019-02-09T22:03:53.201Z,8.15
2019-02-09T22:09:02.368Z,8.09
2019-02-09T22:14:09.300Z,8.02
2019-02-09T22:19:17.886Z,8.00
2019-02-09T22:24:26.755Z,8.02
2019-02-09T22:29:36.549Z,8.00
2019-02-09T22:34:45.600Z,7.98
2019-02-09T22:39:55.602Z,7.96
2019-02-09T22:45:03.373Z,7.96
2019-02-09T22:50:19.201Z,8.00
2019-02-09T22:55:24.068Z,8.02
2019-02-09T23:01:11.972Z,8.09
2019-02-09T23:06:43.106Z,8.09
2019-02-09T23:11:52.325Z,8.08
2019-02-09T23:17:02.741Z,8.07
2019-02-09T23:22:09.753Z,8.06
2019-02-09T23:27:18.869Z,8.01
2019-02-09T23:32:27.645Z,7.97
2019-02-09T23:37:34.922Z,7.98
2019-02-09T23:42:43.644Z,7.99
2019-02-09T23:47:52.297Z,7.93
2019-02-09T23:53:01.144Z,7.91
2019-02-09T23:58:12.484Z,7.91
